sensor_id;sensor_type;location;lat;lon;timestamp;P1;durP1;ratioP1;P2;durP2;ratioP2
1839;SDS011;920;48.944;9.148;2023-04-24T00:00:33;1.60;;;0.70;;
1839;SDS011;920;48.944;9.148;2023-04-24T00:02:59;2.07;;;0.90;;
1839;SDS011;920;48.944;9.148;2023-04-24T00:05:26;1.97;;;1.07;;
1839;SDS011;920;48.944;9.148;2023-04-24T00:07:54;2.90;;;0.90;;
1839;SDS011;920;48.944;9.148;2023-04-24T00:10:21;2.33;;;1.00;;
1839;SDS011;920;48.944;9.148;2023-04-24T00:12:49;1.53;;;0.97;;
1839;SDS011;920;48.944;9.148;2023-04-24T00:15:16;2.07;;;0.80;;
1839;SDS011;920;48.944;9.148;2023-04-24T00:17:42;2.00;;;0.90;;
1839;SDS011;920;48.944;9.148;2023-04-24T00:20:09;1.70;;;0.90;;
1839;SDS011;920;48.944;9.148;2023-04-24T00:22:37;1.90;;;1.00;;
1839;SDS011;920;48.944;9.148;2023-04-24T00:25:05;3.20;;;1.00;;
1839;SDS011;920;48.944;9.148;2023-04-24T00:27:32;1.93;;;1.00;;
1839;SDS011;920;48.944;9.148;2023-04-24T00:30:00;1.60;;;0.87;;
1839;SDS011;920;48.944;9.148;2023-04-24T00:32:26;2.80;;;1.07;;
1839;SDS011;920;48.944;9.148;2023-04-24T00:34:54;1.33;;;0.70;;
1839;SDS011;920;48.944;9.148;2023-04-24T00:37:21;2.83;;;1.37;;
1839;SDS011;920;48.944;9.148;2023-04-24T00:39:48;1.70;;;0.80;;
1839;SDS011;920;48.944;9.148;2023-04-24T00:42:16;2.80;;;1.03;;
1839;SDS011;920;48.944;9.148;2023-04-24T00:44:43;1.40;;;0.77;;
1839;SDS011;920;48.944;9.148;2023-04-24T00:47:10;2.00;;;0.80;;
1839;SDS011;920;48.944;9.148;2023-04-24T00:49:37;1.70;;;0.90;;
1839;SDS011;920;48.944;9.148;2023-04-24T00:52:04;2.40;;;0.83;;
1839;SDS011;920;48.944;9.148;2023-04-24T00:54:34;1.37;;;0.87;;
1839;SDS011;920;48.944;9.148;2023-04-24T00:57:00;1.40;;;0.70;;
1839;SDS011;920;48.944;9.148;2023-04-24T00:59:29;4.03;;;0.60;;
1839;SDS011;920;48.944;9.148;2023-04-24T01:01:55;1.60;;;0.80;;
1839;SDS011;920;48.944;9.148;2023-04-24T01:04:22;1.20;;;0.70;;
1839;SDS011;920;48.944;9.148;2023-04-24T01:06:49;2.20;;;0.80;;
1839;SDS011;920;48.944;9.148;2023-04-24T01:09:16;2.07;;;0.80;;
1839;SDS011;920;48.944;9.148;2023-04-24T01:11:43;1.90;;;0.80;;
1839;SDS011;920;48.944;9.148;2023-04-24T01:14:11;2.00;;;0.70;;
1839;SDS011;920;48.944;9.148;2023-04-24T01:16:39;1.20;;;0.60;;
1839;SDS011;920;48.944;9.148;2023-04-24T01:19:06;1.63;;;0.70;;
1839;SDS011;920;48.944;9.148;2023-04-24T01:21:36;3.40;;;0.93;;
1839;SDS011;920;48.944;9.148;2023-04-24T01:24:05;2.00;;;1.00;;
1839;SDS011;920;48.944;9.148;2023-04-24T01:26:33;1.67;;;0.90;;
1839;SDS011;920;48.944;9.148;2023-04-24T01:29:00;2.47;;;0.90;;
1839;SDS011;920;48.944;9.148;2023-04-24T01:31:26;2.00;;;0.83;;
1839;SDS011;920;48.944;9.148;2023-04-24T01:33:53;2.10;;;0.70;;
1839;SDS011;920;48.944;9.148;2023-04-24T01:36:21;1.50;;;0.77;;
1839;SDS011;920;48.944;9.148;2023-04-24T01:38:48;2.03;;;0.90;;
1839;SDS011;920;48.944;9.148;2023-04-24T01:41:16;1.50;;;0.70;;
1839;SDS011;920;48.944;9.148;2023-04-24T01:43:43;1.40;;;0.70;;
1839;SDS011;920;48.944;9.148;2023-04-24T01:46:10;1.47;;;0.70;;
1839;SDS011;920;48.944;9.148;2023-04-24T01:48:37;1.60;;;0.77;;
1839;SDS011;920;48.944;9.148;2023-04-24T01:51:04;1.40;;;0.70;;
1839;SDS011;920;48.944;9.148;2023-04-24T01:53:31;1.67;;;0.80;;
1839;SDS011;920;48.944;9.148;2023-04-24T01:55:57;1.63;;;0.80;;
1839;SDS011;920;48.944;9.148;2023-04-24T01:58:26;1.60;;;0.80;;
1839;SDS011;920;48.944;9.148;2023-04-24T02:00:53;2.03;;;0.83;;
1839;SDS011;920;48.944;9.148;2023-04-24T02:03:22;1.60;;;0.70;;
1839;SDS011;920;48.944;9.148;2023-04-24T02:05:49;1.90;;;0.80;;
1839;SDS011;920;48.944;9.148;2023-04-24T02:08:16;1.50;;;0.80;;
1839;SDS011;920;48.944;9.148;2023-04-24T02:10:43;1.90;;;0.80;;
1839;SDS011;920;48.944;9.148;2023-04-24T02:13:09;3.00;;;0.90;;
1839;SDS011;920;48.944;9.148;2023-04-24T02:15:37;1.53;;;0.70;;
1839;SDS011;920;48.944;9.148;2023-04-24T02:18:04;1.27;;;0.60;;
1839;SDS011;920;48.944;9.148;2023-04-24T02:20:32;2.00;;;0.97;;
1839;SDS011;920;48.944;9.148;2023-04-24T02:22:59;2.63;;;0.90;;
1839;SDS011;920;48.944;9.148;2023-04-24T02:25:25;1.30;;;0.80;;
1839;SDS011;920;48.944;9.148;2023-04-24T02:27:54;2.30;;;1.10;;
1839;SDS011;920;48.944;9.148;2023-04-24T02:30:21;1.50;;;0.80;;
1839;SDS011;920;48.944;9.148;2023-04-24T02:32:49;1.97;;;0.90;;
1839;SDS011;920;48.944;9.148;2023-04-24T02:35:17;1.60;;;0.73;;
1839;SDS011;920;48.944;9.148;2023-04-24T02:37:43;1.70;;;0.83;;
1839;SDS011;920;48.944;9.148;2023-04-24T02:40:11;2.13;;;1.00;;
1839;SDS011;920;48.944;9.148;2023-04-24T02:42:38;1.60;;;0.70;;
1839;SDS011;920;48.944;9.148;2023-04-24T02:45:05;1.87;;;0.80;;
1839;SDS011;920;48.944;9.148;2023-04-24T02:47:32;2.90;;;0.90;;
1839;SDS011;920;48.944;9.148;2023-04-24T02:50:00;2.33;;;1.10;;
1839;SDS011;920;48.944;9.148;2023-04-24T02:52:28;1.60;;;0.87;;
1839;SDS011;920;48.944;9.148;2023-04-24T02:54:54;1.70;;;1.00;;
1839;SDS011;920;48.944;9.148;2023-04-24T02:57:21;1.70;;;0.90;;
1839;SDS011;920;48.944;9.148;2023-04-24T02:59:48;1.77;;;0.87;;
1839;SDS011;920;48.944;9.148;2023-04-24T03:02:15;1.60;;;0.87;;
1839;SDS011;920;48.944;9.148;2023-04-24T03:04:41;2.10;;;0.80;;
1839;SDS011;920;48.944;9.148;2023-04-24T03:07:12;1.83;;;0.90;;
1839;SDS011;920;48.944;9.148;2023-04-24T03:09:39;1.73;;;0.83;;
1839;SDS011;920;48.944;9.148;2023-04-24T03:12:07;2.03;;;1.00;;
1839;SDS011;920;48.944;9.148;2023-04-24T03:14:34;2.30;;;0.90;;
1839;SDS011;920;48.944;9.148;2023-04-24T03:17:00;2.17;;;0.90;;
1839;SDS011;920;48.944;9.148;2023-04-24T03:19:27;1.43;;;0.70;;
1839;SDS011;920;48.944;9.148;2023-04-24T03:22:02;2.23;;;0.80;;
1839;SDS011;920;48.944;9.148;2023-04-24T03:24:31;2.13;;;0.63;;
1839;SDS011;920;48.944;9.148;2023-04-24T03:26:58;1.57;;;0.90;;
1839;SDS011;920;48.944;9.148;2023-04-24T03:29:44;1.63;;;0.90;;
1839;SDS011;920;48.944;9.148;2023-04-24T03:32:11;1.37;;;0.90;;
1839;SDS011;920;48.944;9.148;2023-04-24T03:34:38;1.40;;;0.67;;
1839;SDS011;920;48.944;9.148;2023-04-24T03:37:09;2.30;;;0.90;;
1839;SDS011;920;48.944;9.148;2023-04-24T03:39:41;3.20;;;0.97;;
1839;SDS011;920;48.944;9.148;2023-04-24T03:42:08;1.60;;;1.00;;
1839;SDS011;920;48.944;9.148;2023-04-24T03:44:45;1.60;;;0.80;;
1839;SDS011;920;48.944;9.148;2023-04-24T03:47:11;1.70;;;0.80;;
1839;SDS011;920;48.944;9.148;2023-04-24T03:49:38;1.70;;;0.90;;
1839;SDS011;920;48.944;9.148;2023-04-24T03:52:05;1.70;;;0.90;;
1839;SDS011;920;48.944;9.148;2023-04-24T03:54:32;3.40;;;1.03;;
1839;SDS011;920;48.944;9.148;2023-04-24T03:57:05;1.30;;;0.70;;
1839;SDS011;920;48.944;9.148;2023-04-24T03:59:33;1.67;;;0.87;;
1839;SDS011;920;48.944;9.148;2023-04-24T04:02:08;1.50;;;0.90;;
1839;SDS011;920;48.944;9.148;2023-04-24T04:04:36;2.50;;;0.93;;
1839;SDS011;920;48.944;9.148;2023-04-24T04:07:03;3.67;;;1.10;;
1839;SDS011;920;48.944;9.148;2023-04-24T04:09:30;1.77;;;0.90;;
1839;SDS011;920;48.944;9.148;2023-04-24T04:11:57;1.43;;;0.83;;
1839;SDS011;920;48.944;9.148;2023-04-24T04:14:27;2.10;;;0.90;;
1839;SDS011;920;48.944;9.148;2023-04-24T04:16:56;1.30;;;0.80;;
1839;SDS011;920;48.944;9.148;2023-04-24T04:19:23;1.20;;;0.70;;
1839;SDS011;920;48.944;9.148;2023-04-24T04:21:50;2.07;;;0.90;;
1839;SDS011;920;48.944;9.148;2023-04-24T04:24:36;2.17;;;0.90;;
1839;SDS011;920;48.944;9.148;2023-04-24T04:27:07;1.73;;;1.03;;
1839;SDS011;920;48.944;9.148;2023-04-24T04:29:53;4.13;;;0.90;;
1839;SDS011;920;48.944;9.148;2023-04-24T04:32:22;1.40;;;0.90;;
1839;SDS011;920;48.944;9.148;2023-04-24T04:34:49;1.80;;;1.00;;
1839;SDS011;920;48.944;9.148;2023-04-24T04:37:19;1.70;;;0.90;;
1839;SDS011;920;48.944;9.148;2023-04-24T04:40:07;1.50;;;0.90;;
1839;SDS011;920;48.944;9.148;2023-04-24T04:42:43;1.83;;;1.03;;
1839;SDS011;920;48.944;9.148;2023-04-24T04:45:13;1.57;;;0.83;;
1839;SDS011;920;48.944;9.148;2023-04-24T04:48:02;2.03;;;1.10;;
1839;SDS011;920;48.944;9.148;2023-04-24T04:50:30;1.40;;;0.90;;
1839;SDS011;920;48.944;9.148;2023-04-24T04:53:02;3.70;;;1.30;;
1839;SDS011;920;48.944;9.148;2023-04-24T04:55:33;1.70;;;0.90;;
1839;SDS011;920;48.944;9.148;2023-04-24T04:58:17;1.93;;;1.17;;
1839;SDS011;920;48.944;9.148;2023-04-24T05:00:46;1.33;;;0.97;;
1839;SDS011;920;48.944;9.148;2023-04-24T05:03:23;3.10;;;1.10;;
1839;SDS011;920;48.944;9.148;2023-04-24T05:05:57;2.23;;;0.90;;
1839;SDS011;920;48.944;9.148;2023-04-24T05:08:24;1.67;;;1.07;;
1839;SDS011;920;48.944;9.148;2023-04-24T05:10:51;1.80;;;1.00;;
1839;SDS011;920;48.944;9.148;2023-04-24T05:13:18;2.53;;;1.00;;
1839;SDS011;920;48.944;9.148;2023-04-24T05:15:46;1.50;;;0.83;;
1839;SDS011;920;48.944;9.148;2023-04-24T05:18:14;1.47;;;1.00;;
1839;SDS011;920;48.944;9.148;2023-04-24T05:20:42;1.77;;;1.20;;
1839;SDS011;920;48.944;9.148;2023-04-24T05:23:09;1.90;;;1.20;;
1839;SDS011;920;48.944;9.148;2023-04-24T05:25:38;2.60;;;0.93;;
1839;SDS011;920;48.944;9.148;2023-04-24T05:28:09;2.30;;;1.20;;
1839;SDS011;920;48.944;9.148;2023-04-24T05:30:36;1.90;;;1.17;;
1839;SDS011;920;48.944;9.148;2023-04-24T05:33:04;2.30;;;1.20;;
1839;SDS011;920;48.944;9.148;2023-04-24T05:35:33;1.43;;;1.07;;
1839;SDS011;920;48.944;9.148;2023-04-24T05:38:00;2.23;;;1.50;;
1839;SDS011;920;48.944;9.148;2023-04-24T05:40:27;1.63;;;1.20;;
1839;SDS011;920;48.944;9.148;2023-04-24T05:42:54;1.83;;;1.30;;
1839;SDS011;920;48.944;9.148;2023-04-24T05:45:23;1.80;;;1.40;;
1839;SDS011;920;48.944;9.148;2023-04-24T05:47:50;1.83;;;1.10;;
1839;SDS011;920;48.944;9.148;2023-04-24T05:50:19;1.73;;;1.37;;
1839;SDS011;920;48.944;9.148;2023-04-24T05:52:46;1.60;;;1.33;;
1839;SDS011;920;48.944;9.148;2023-04-24T05:55:23;3.40;;;1.60;;
1839;SDS011;920;48.944;9.148;2023-04-24T05:57:50;2.17;;;1.50;;
1839;SDS011;920;48.944;9.148;2023-04-24T06:00:17;2.10;;;1.50;;
1839;SDS011;920;48.944;9.148;2023-04-24T06:02:50;2.33;;;1.50;;
1839;SDS011;920;48.944;9.148;2023-04-24T06:05:19;2.13;;;1.50;;
1839;SDS011;920;48.944;9.148;2023-04-24T06:07:46;3.53;;;1.60;;
1839;SDS011;920;48.944;9.148;2023-04-24T06:10:13;1.97;;;1.47;;
1839;SDS011;920;48.944;9.148;2023-04-24T06:12:43;2.87;;;1.40;;
1839;SDS011;920;48.944;9.148;2023-04-24T06:15:15;2.00;;;1.57;;
1839;SDS011;920;48.944;9.148;2023-04-24T06:17:55;2.27;;;1.53;;
1839;SDS011;920;48.944;9.148;2023-04-24T06:20:24;3.60;;;1.73;;
1839;SDS011;920;48.944;9.148;2023-04-24T06:22:51;3.23;;;1.57;;
1839;SDS011;920;48.944;9.148;2023-04-24T06:25:19;2.40;;;1.53;;
1839;SDS011;920;48.944;9.148;2023-04-24T06:27:46;2.77;;;1.70;;
1839;SDS011;920;48.944;9.148;2023-04-24T06:30:12;1.93;;;1.67;;
1839;SDS011;920;48.944;9.148;2023-04-24T06:32:39;2.40;;;1.80;;
1839;SDS011;920;48.944;9.148;2023-04-24T06:35:07;2.10;;;1.60;;
1839;SDS011;920;48.944;9.148;2023-04-24T06:37:36;2.50;;;1.50;;
1839;SDS011;920;48.944;9.148;2023-04-24T06:40:03;2.23;;;1.70;;
1839;SDS011;920;48.944;9.148;2023-04-24T06:42:30;2.43;;;1.60;;
1839;SDS011;920;48.944;9.148;2023-04-24T06:44:57;4.37;;;1.50;;
1839;SDS011;920;48.944;9.148;2023-04-24T06:47:24;1.90;;;1.30;;
1839;SDS011;920;48.944;9.148;2023-04-24T06:49:50;1.80;;;1.40;;
1839;SDS011;920;48.944;9.148;2023-04-24T06:52:18;1.90;;;1.60;;
1839;SDS011;920;48.944;9.148;2023-04-24T06:54:46;2.37;;;1.60;;
1839;SDS011;920;48.944;9.148;2023-04-24T06:57:13;2.33;;;1.60;;
1839;SDS011;920;48.944;9.148;2023-04-24T06:59:41;3.47;;;1.60;;
1839;SDS011;920;48.944;9.148;2023-04-24T07:02:07;1.90;;;1.30;;
1839;SDS011;920;48.944;9.148;2023-04-24T07:04:34;2.20;;;1.73;;
1839;SDS011;920;48.944;9.148;2023-04-24T07:07:01;2.77;;;2.00;;
1839;SDS011;920;48.944;9.148;2023-04-24T07:09:29;2.00;;;1.70;;
1839;SDS011;920;48.944;9.148;2023-04-24T07:11:58;2.30;;;1.73;;
1839;SDS011;920;48.944;9.148;2023-04-24T07:14:25;2.80;;;2.03;;
1839;SDS011;920;48.944;9.148;2023-04-24T07:16:52;2.80;;;1.60;;
1839;SDS011;920;48.944;9.148;2023-04-24T07:19:18;2.73;;;1.97;;
1839;SDS011;920;48.944;9.148;2023-04-24T07:21:45;2.03;;;1.50;;
1839;SDS011;920;48.944;9.148;2023-04-24T07:24:12;3.87;;;1.83;;
1839;SDS011;920;48.944;9.148;2023-04-24T07:26:39;1.93;;;1.50;;
1839;SDS011;920;48.944;9.148;2023-04-24T07:29:07;2.53;;;1.60;;
1839;SDS011;920;48.944;9.148;2023-04-24T07:31:34;2.40;;;1.80;;
1839;SDS011;920;48.944;9.148;2023-04-24T07:34:00;2.50;;;1.67;;
1839;SDS011;920;48.944;9.148;2023-04-24T07:36:27;2.30;;;1.90;;
1839;SDS011;920;48.944;9.148;2023-04-24T07:38:54;3.00;;;1.60;;
1839;SDS011;920;48.944;9.148;2023-04-24T07:41:22;2.47;;;1.93;;
1839;SDS011;920;48.944;9.148;2023-04-24T07:43:49;3.63;;;1.77;;
1839;SDS011;920;48.944;9.148;2023-04-24T07:46:17;1.97;;;1.53;;
1839;SDS011;920;48.944;9.148;2023-04-24T07:48:44;2.60;;;1.70;;
1839;SDS011;920;48.944;9.148;2023-04-24T07:51:11;2.13;;;1.60;;
1839;SDS011;920;48.944;9.148;2023-04-24T07:53:38;1.93;;;1.60;;
1839;SDS011;920;48.944;9.148;2023-04-24T07:56:05;3.83;;;1.47;;
1839;SDS011;920;48.944;9.148;2023-04-24T07:58:32;2.13;;;1.60;;
1839;SDS011;920;48.944;9.148;2023-04-24T08:00:59;3.70;;;1.33;;
1839;SDS011;920;48.944;9.148;2023-04-24T08:03:27;2.40;;;1.50;;
1839;SDS011;920;48.944;9.148;2023-04-24T08:05:53;2.53;;;1.60;;
1839;SDS011;920;48.944;9.148;2023-04-24T08:08:21;2.50;;;1.50;;
1839;SDS011;920;48.944;9.148;2023-04-24T08:10:48;2.30;;;1.57;;
1839;SDS011;920;48.944;9.148;2023-04-24T08:13:15;2.17;;;1.30;;
1839;SDS011;920;48.944;9.148;2023-04-24T08:15:42;2.27;;;1.27;;
1839;SDS011;920;48.944;9.148;2023-04-24T08:18:08;2.80;;;1.50;;
1839;SDS011;920;48.944;9.148;2023-04-24T08:20:38;2.00;;;1.30;;
1839;SDS011;920;48.944;9.148;2023-04-24T08:23:05;2.23;;;1.70;;
1839;SDS011;920;48.944;9.148;2023-04-24T08:25:32;3.40;;;1.60;;
1839;SDS011;920;48.944;9.148;2023-04-24T08:28:00;3.77;;;1.77;;
1839;SDS011;920;48.944;9.148;2023-04-24T08:30:28;2.97;;;1.30;;
1839;SDS011;920;48.944;9.148;2023-04-24T08:32:55;2.17;;;1.30;;
1839;SDS011;920;48.944;9.148;2023-04-24T08:35:22;3.30;;;1.40;;
1839;SDS011;920;48.944;9.148;2023-04-24T08:37:50;2.83;;;1.30;;
1839;SDS011;920;48.944;9.148;2023-04-24T08:40:18;1.90;;;1.10;;
1839;SDS011;920;48.944;9.148;2023-04-24T08:42:49;1.60;;;0.90;;
1839;SDS011;920;48.944;9.148;2023-04-24T08:45:16;1.93;;;1.30;;
1839;SDS011;920;48.944;9.148;2023-04-24T08:47:43;2.30;;;1.30;;
1839;SDS011;920;48.944;9.148;2023-04-24T08:50:10;2.90;;;1.70;;
1839;SDS011;920;48.944;9.148;2023-04-24T08:52:37;2.43;;;1.23;;
1839;SDS011;920;48.944;9.148;2023-04-24T08:55:06;3.13;;;1.57;;
1839;SDS011;920;48.944;9.148;2023-04-24T08:57:33;2.00;;;1.13;;
1839;SDS011;920;48.944;9.148;2023-04-24T09:00:01;1.87;;;1.30;;
1839;SDS011;920;48.944;9.148;2023-04-24T09:02:28;1.80;;;1.20;;
1839;SDS011;920;48.944;9.148;2023-04-24T09:04:56;1.97;;;1.33;;
1839;SDS011;920;48.944;9.148;2023-04-24T09:07:23;1.87;;;1.30;;
1839;SDS011;920;48.944;9.148;2023-04-24T09:09:51;3.27;;;1.30;;
1839;SDS011;920;48.944;9.148;2023-04-24T09:12:19;2.33;;;1.50;;
1839;SDS011;920;48.944;9.148;2023-04-24T09:14:47;3.83;;;1.70;;
1839;SDS011;920;48.944;9.148;2023-04-24T09:17:15;2.40;;;1.50;;
1839;SDS011;920;48.944;9.148;2023-04-24T09:19:41;2.60;;;1.47;;
1839;SDS011;920;48.944;9.148;2023-04-24T09:22:09;2.17;;;1.37;;
1839;SDS011;920;48.944;9.148;2023-04-24T09:24:36;2.17;;;1.20;;
1839;SDS011;920;48.944;9.148;2023-04-24T09:27:03;2.10;;;1.60;;
1839;SDS011;920;48.944;9.148;2023-04-24T09:29:31;2.00;;;1.27;;
1839;SDS011;920;48.944;9.148;2023-04-24T09:31:58;2.10;;;1.30;;
1839;SDS011;920;48.944;9.148;2023-04-24T09:34:26;2.13;;;1.00;;
1839;SDS011;920;48.944;9.148;2023-04-24T09:36:53;3.50;;;1.23;;
1839;SDS011;920;48.944;9.148;2023-04-24T09:39:20;2.40;;;1.10;;
1839;SDS011;920;48.944;9.148;2023-04-24T09:41:48;3.00;;;1.30;;
1839;SDS011;920;48.944;9.148;2023-04-24T09:44:16;2.80;;;1.30;;
1839;SDS011;920;48.944;9.148;2023-04-24T09:46:45;2.03;;;1.20;;
1839;SDS011;920;48.944;9.148;2023-04-24T09:49:15;1.93;;;1.20;;
1839;SDS011;920;48.944;9.148;2023-04-24T09:51:43;2.60;;;1.10;;
1839;SDS011;920;48.944;9.148;2023-04-24T09:54:13;3.80;;;1.50;;
1839;SDS011;920;48.944;9.148;2023-04-24T09:56:42;3.03;;;1.20;;
1839;SDS011;920;48.944;9.148;2023-04-24T09:59:10;2.73;;;1.40;;
1839;SDS011;920;48.944;9.148;2023-04-24T10:01:37;3.53;;;1.40;;
1839;SDS011;920;48.944;9.148;2023-04-24T10:04:18;3.50;;;1.40;;
1839;SDS011;920;48.944;9.148;2023-04-24T10:06:47;2.93;;;1.57;;
1839;SDS011;920;48.944;9.148;2023-04-24T10:09:15;2.30;;;1.30;;
1839;SDS011;920;48.944;9.148;2023-04-24T10:11:42;2.27;;;1.33;;
1839;SDS011;920;48.944;9.148;2023-04-24T10:14:12;2.20;;;1.50;;
1839;SDS011;920;48.944;9.148;2023-04-24T10:16:40;2.37;;;1.60;;
1839;SDS011;920;48.944;9.148;2023-04-24T10:19:07;1.87;;;1.33;;
1839;SDS011;920;48.944;9.148;2023-04-24T10:21:35;1.87;;;1.37;;
1839;SDS011;920;48.944;9.148;2023-04-24T10:24:07;1.60;;;1.30;;
1839;SDS011;920;48.944;9.148;2023-04-24T10:26:34;2.33;;;1.40;;
1839;SDS011;920;48.944;9.148;2023-04-24T10:29:01;3.00;;;1.60;;
1839;SDS011;920;48.944;9.148;2023-04-24T10:31:31;3.33;;;1.47;;
1839;SDS011;920;48.944;9.148;2023-04-24T10:33:58;2.50;;;1.50;;
1839;SDS011;920;48.944;9.148;2023-04-24T10:36:26;2.77;;;1.50;;
1839;SDS011;920;48.944;9.148;2023-04-24T10:38:55;3.50;;;1.83;;
1839;SDS011;920;48.944;9.148;2023-04-24T10:41:23;2.50;;;1.80;;
1839;SDS011;920;48.944;9.148;2023-04-24T10:44:03;3.00;;;1.90;;
1839;SDS011;920;48.944;9.148;2023-04-24T10:46:31;3.40;;;1.93;;
1839;SDS011;920;48.944;9.148;2023-04-24T10:48:57;2.00;;;1.60;;
1839;SDS011;920;48.944;9.148;2023-04-24T10:51:24;1.90;;;1.60;;
1839;SDS011;920;48.944;9.148;2023-04-24T10:54:26;2.40;;;1.67;;
1839;SDS011;920;48.944;9.148;2023-04-24T10:56:55;3.93;;;1.80;;
1839;SDS011;920;48.944;9.148;2023-04-24T11:00:09;2.37;;;1.70;;
1839;SDS011;920;48.944;9.148;2023-04-24T11:02:39;3.00;;;1.63;;
1839;SDS011;920;48.944;9.148;2023-04-24T11:05:14;2.07;;;1.57;;
1839;SDS011;920;48.944;9.148;2023-04-24T11:10:46;2.77;;;1.80;;
1839;SDS011;920;48.944;9.148;2023-04-24T11:13:14;3.40;;;1.70;;
1839;SDS011;920;48.944;9.148;2023-04-24T11:15:41;4.67;;;1.53;;
1839;SDS011;920;48.944;9.148;2023-04-24T11:18:12;3.33;;;1.70;;
1839;SDS011;920;48.944;9.148;2023-04-24T11:20:41;2.20;;;1.50;;
1839;SDS011;920;48.944;9.148;2023-04-24T11:23:08;3.60;;;2.27;;
1839;SDS011;920;48.944;9.148;2023-04-24T11:25:38;2.27;;;1.90;;
1839;SDS011;920;48.944;9.148;2023-04-24T11:28:06;2.40;;;1.80;;
1839;SDS011;920;48.944;9.148;2023-04-24T11:30:33;2.60;;;1.80;;
1839;SDS011;920;48.944;9.148;2023-04-24T11:33:01;3.00;;;1.80;;
1839;SDS011;920;48.944;9.148;2023-04-24T11:35:29;3.50;;;2.00;;
1839;SDS011;920;48.944;9.148;2023-04-24T11:37:56;2.50;;;1.50;;
1839;SDS011;920;48.944;9.148;2023-04-24T11:40:23;2.70;;;2.00;;
1839;SDS011;920;48.944;9.148;2023-04-24T11:42:50;2.17;;;1.80;;
1839;SDS011;920;48.944;9.148;2023-04-24T11:45:20;2.57;;;1.83;;
1839;SDS011;920;48.944;9.148;2023-04-24T11:47:48;2.10;;;1.80;;
1839;SDS011;920;48.944;9.148;2023-04-24T11:50:15;2.13;;;1.67;;
1839;SDS011;920;48.944;9.148;2023-04-24T11:52:43;2.07;;;1.60;;
1839;SDS011;920;48.944;9.148;2023-04-24T11:55:22;3.10;;;2.30;;
1839;SDS011;920;48.944;9.148;2023-04-24T11:57:51;2.20;;;1.87;;
1839;SDS011;920;48.944;9.148;2023-04-24T12:00:22;2.37;;;1.90;;
1839;SDS011;920;48.944;9.148;2023-04-24T12:02:50;2.73;;;2.00;;
1839;SDS011;920;48.944;9.148;2023-04-24T12:05:20;3.57;;;2.30;;
1839;SDS011;920;48.944;9.148;2023-04-24T12:07:48;3.40;;;2.60;;
1839;SDS011;920;48.944;9.148;2023-04-24T12:10:19;3.13;;;2.20;;
1839;SDS011;920;48.944;9.148;2023-04-24T12:12:46;3.80;;;2.53;;
1839;SDS011;920;48.944;9.148;2023-04-24T12:15:15;2.87;;;2.60;;
1839;SDS011;920;48.944;9.148;2023-04-24T12:17:44;3.27;;;2.40;;
1839;SDS011;920;48.944;9.148;2023-04-24T12:20:11;3.60;;;2.30;;
1839;SDS011;920;48.944;9.148;2023-04-24T12:22:45;3.17;;;2.50;;
1839;SDS011;920;48.944;9.148;2023-04-24T12:25:12;2.50;;;1.80;;
1839;SDS011;920;48.944;9.148;2023-04-24T12:27:40;3.73;;;1.93;;
1839;SDS011;920;48.944;9.148;2023-04-24T12:30:12;2.97;;;1.70;;
1839;SDS011;920;48.944;9.148;2023-04-24T12:32:45;2.07;;;1.63;;
1839;SDS011;920;48.944;9.148;2023-04-24T12:35:12;2.70;;;2.07;;
1839;SDS011;920;48.944;9.148;2023-04-24T12:37:41;3.30;;;2.17;;
1839;SDS011;920;48.944;9.148;2023-04-24T12:40:09;3.23;;;1.90;;
1839;SDS011;920;48.944;9.148;2023-04-24T12:42:41;3.23;;;2.20;;
1839;SDS011;920;48.944;9.148;2023-04-24T12:45:09;3.23;;;2.40;;
1839;SDS011;920;48.944;9.148;2023-04-24T12:47:37;2.23;;;1.90;;
1839;SDS011;920;48.944;9.148;2023-04-24T12:50:06;4.03;;;2.33;;
1839;SDS011;920;48.944;9.148;2023-04-24T12:52:34;3.23;;;1.90;;
1839;SDS011;920;48.944;9.148;2023-04-24T12:55:01;2.53;;;2.10;;
1839;SDS011;920;48.944;9.148;2023-04-24T12:57:28;3.80;;;2.17;;
1839;SDS011;920;48.944;9.148;2023-04-24T12:59:56;5.93;;;1.97;;
1839;SDS011;920;48.944;9.148;2023-04-24T13:02:23;3.00;;;2.20;;
1839;SDS011;920;48.944;9.148;2023-04-24T13:04:51;4.80;;;2.40;;
1839;SDS011;920;48.944;9.148;2023-04-24T13:07:20;2.87;;;2.57;;
1839;SDS011;920;48.944;9.148;2023-04-24T13:09:47;3.40;;;2.40;;
1839;SDS011;920;48.944;9.148;2023-04-24T13:12:15;3.60;;;2.50;;
1839;SDS011;920;48.944;9.148;2023-04-24T13:14:42;7.20;;;2.73;;
1839;SDS011;920;48.944;9.148;2023-04-24T13:17:08;3.13;;;2.40;;
1839;SDS011;920;48.944;9.148;2023-04-24T13:19:37;3.70;;;2.40;;
1839;SDS011;920;48.944;9.148;2023-04-24T13:22:04;2.57;;;2.33;;
1839;SDS011;920;48.944;9.148;2023-04-24T13:24:33;3.70;;;2.57;;
1839;SDS011;920;48.944;9.148;2023-04-24T13:27:00;3.27;;;2.43;;
1839;SDS011;920;48.944;9.148;2023-04-24T13:29:27;2.40;;;1.97;;
1839;SDS011;920;48.944;9.148;2023-04-24T13:31:54;3.83;;;2.33;;
1839;SDS011;920;48.944;9.148;2023-04-24T13:34:21;3.13;;;2.33;;
1839;SDS011;920;48.944;9.148;2023-04-24T13:36:48;3.67;;;3.10;;
1839;SDS011;920;48.944;9.148;2023-04-24T13:39:16;2.97;;;2.67;;
1839;SDS011;920;48.944;9.148;2023-04-24T13:41:44;3.90;;;3.00;;
1839;SDS011;920;48.944;9.148;2023-04-24T13:44:12;3.10;;;2.60;;
1839;SDS011;920;48.944;9.148;2023-04-24T13:46:39;3.17;;;2.70;;
1839;SDS011;920;48.944;9.148;2023-04-24T13:49:06;4.93;;;3.00;;
1839;SDS011;920;48.944;9.148;2023-04-24T13:51:34;2.87;;;2.57;;
1839;SDS011;920;48.944;9.148;2023-04-24T13:54:00;2.80;;;2.17;;
1839;SDS011;920;48.944;9.148;2023-04-24T13:56:27;2.57;;;2.37;;
1839;SDS011;920;48.944;9.148;2023-04-24T13:58:55;3.67;;;2.67;;
1839;SDS011;920;48.944;9.148;2023-04-24T14:01:22;6.03;;;2.30;;
1839;SDS011;920;48.944;9.148;2023-04-24T14:03:49;3.63;;;2.67;;
1839;SDS011;920;48.944;9.148;2023-04-24T14:06:17;6.03;;;2.40;;
1839;SDS011;920;48.944;9.148;2023-04-24T14:08:44;4.17;;;2.20;;
1839;SDS011;920;48.944;9.148;2023-04-24T14:11:10;2.57;;;2.33;;
1839;SDS011;920;48.944;9.148;2023-04-24T14:13:37;3.13;;;2.30;;
1839;SDS011;920;48.944;9.148;2023-04-24T14:16:05;4.37;;;2.20;;
1839;SDS011;920;48.944;9.148;2023-04-24T14:18:32;4.53;;;2.60;;
1839;SDS011;920;48.944;9.148;2023-04-24T14:20:59;3.40;;;2.60;;
1839;SDS011;920;48.944;9.148;2023-04-24T14:23:26;3.13;;;2.63;;
1839;SDS011;920;48.944;9.148;2023-04-24T14:25:53;3.83;;;2.57;;
1839;SDS011;920;48.944;9.148;2023-04-24T14:28:20;4.93;;;2.70;;
1839;SDS011;920;48.944;9.148;2023-04-24T14:30:47;3.77;;;2.50;;
1839;SDS011;920;48.944;9.148;2023-04-24T14:33:15;2.97;;;2.23;;
1839;SDS011;920;48.944;9.148;2023-04-24T14:35:42;3.00;;;2.37;;
1839;SDS011;920;48.944;9.148;2023-04-24T14:38:09;4.60;;;2.63;;
1839;SDS011;920;48.944;9.148;2023-04-24T14:40:36;2.77;;;2.20;;
1839;SDS011;920;48.944;9.148;2023-04-24T14:43:03;3.70;;;2.50;;
1839;SDS011;920;48.944;9.148;2023-04-24T14:45:29;2.83;;;2.37;;
1839;SDS011;920;48.944;9.148;2023-04-24T14:47:57;3.13;;;2.13;;
1839;SDS011;920;48.944;9.148;2023-04-24T14:50:25;2.50;;;2.03;;
1839;SDS011;920;48.944;9.148;2023-04-24T14:52:53;2.73;;;1.80;;
1839;SDS011;920;48.944;9.148;2023-04-24T14:55:20;5.47;;;2.67;;
1839;SDS011;920;48.944;9.148;2023-04-24T14:57:46;4.30;;;1.90;;
1839;SDS011;920;48.944;9.148;2023-04-24T15:00:13;2.53;;;1.90;;
1839;SDS011;920;48.944;9.148;2023-04-24T15:02:42;2.60;;;1.93;;
1839;SDS011;920;48.944;9.148;2023-04-24T15:05:09;3.60;;;1.80;;
1839;SDS011;920;48.944;9.148;2023-04-24T15:07:38;2.40;;;1.97;;
1839;SDS011;920;48.944;9.148;2023-04-24T15:10:07;1.97;;;1.60;;
1839;SDS011;920;48.944;9.148;2023-04-24T15:12:34;2.30;;;1.50;;
1839;SDS011;920;48.944;9.148;2023-04-24T15:15:01;2.10;;;1.60;;
1839;SDS011;920;48.944;9.148;2023-04-24T15:17:28;2.83;;;1.70;;
1839;SDS011;920;48.944;9.148;2023-04-24T15:19:55;3.17;;;1.90;;
1839;SDS011;920;48.944;9.148;2023-04-24T15:22:22;3.33;;;1.60;;
1839;SDS011;920;48.944;9.148;2023-04-24T15:24:50;2.53;;;1.60;;
1839;SDS011;920;48.944;9.148;2023-04-24T15:27:17;2.00;;;1.40;;
1839;SDS011;920;48.944;9.148;2023-04-24T15:29:43;3.53;;;2.07;;
1839;SDS011;920;48.944;9.148;2023-04-24T15:32:10;2.83;;;1.90;;
1839;SDS011;920;48.944;9.148;2023-04-24T15:34:37;2.33;;;1.90;;
1839;SDS011;920;48.944;9.148;2023-04-24T15:37:03;5.37;;;1.87;;
1839;SDS011;920;48.944;9.148;2023-04-24T15:39:30;2.03;;;1.60;;